Stottfjord — LMCE — position and weather

sailwx.info

Track history (hours):
 
Tides and Currents Weather Stations Pressure Air Temp Water Temp Dewpoint Dewpoint Depression Visibility Wind Speed Wind Dir Waves Ship Positions

Stottfjord

Last reported at 2015-May-03 10:34 UTC. Time now 2015-May-03 10:50 UTC.
Position N 67°17' E 014°23'.

Length 28 m; draft 5.3 m.

Type: Fishing. MMSI: 257580600.

Date/timePositionNaut miles runAvg speedWind from/ knotsBaromVisibWave heightAir tempDewpointWater temp
2015-May-03 10:34N 67°17' E 014°23'0 0.0
2015-May-03 09:33N 67°17' E 014°23'0 0.0
2015-May-03 08:34N 67°17' E 014°23'0 0.0
2015-May-03 07:34N 67°17' E 014°23'0 0.0
2015-May-03 06:33N 67°17' E 014°23'0 0.0
2015-May-03 05:34N 67°17' E 014°23'0 0.0
2015-May-03 04:33N 67°17' E 014°23'0 0.0
2015-May-03 03:34N 67°17' E 014°23'0 0.0
2015-May-03 02:34N 67°17' E 014°23'0 0.0
2015-May-03 01:34N 67°17' E 014°23'0 0.0
2015-May-03 00:33N 67°17' E 014°23'0 0.0
2015-May-02 23:34N 67°17' E 014°23'0 0.0
2015-May-02 22:34N 67°17' E 014°23'0 0.0
2015-May-02 21:33N 67°17' E 014°23'0 0.0
2015-May-02 20:34N 67°17' E 014°23'0 0.0
2015-May-02 19:34N 67°17' E 014°23'0 0.0
2015-May-02 18:34N 67°17' E 014°23'0 0.0
2015-May-02 17:34N 67°17' E 014°23'0 0.0
2015-May-02 16:34N 67°17' E 014°23'0 0.0
2015-May-02 15:34N 67°17' E 014°23'0 0.0
2015-May-02 14:34N 67°17' E 014°23'0 0.0
2015-May-02 13:33N 67°17' E 014°23'0 0.0
2015-May-02 12:34N 67°17' E 014°23'0 0.0
2015-May-02 11:33N 67°17' E 014°23'0 0.0
2015-May-02 10:33N 67°17' E 014°23'0 0.0
2015-May-02 09:34N 67°17' E 014°23'0 0.0
2015-May-02 08:34N 67°17' E 014°23'0 0.0
2015-May-02 07:34N 67°17' E 014°23'0 0.0
2015-May-02 06:34N 67°17' E 014°23'0 0.0
2015-May-02 05:34N 67°17' E 014°23'0 0.0
2015-May-02 04:34N 67°17' E 014°23'0 0.0
2015-May-02 03:34N 67°17' E 014°23'0 0.0
2015-May-02 02:34N 67°17' E 014°23'0 0.0
2015-May-02 01:34N 67°17' E 014°23'0 0.0
2015-May-02 00:33N 67°17' E 014°23'0 0.0
2015-May-01 23:34N 67°17' E 014°23'0 0.0
2015-May-01 22:34N 67°17' E 014°23'0 0.0
2015-May-01 21:34N 67°17' E 014°23'0 0.0
2015-May-01 20:34N 67°17' E 014°23'0 0.0
2015-May-01 19:34N 67°17' E 014°23'0 0.0
2015-May-01 18:34N 67°17' E 014°23'3 2.6
2015-May-01 17:34N 67°16' E 014°18'9 9.5
2015-May-01 16:34N 67°10' E 013°58'48 9.6
2015-May-01 11:32N 66°37' E 012°29'10 9.3
2015-May-01 10:29N 66°31' E 012°11'2 1.8
2015-May-01 09:30N 66°30' E 012°06'0 0.0
2015-May-01 08:33N 66°30' E 012°06'0 0.0
2015-May-01 07:33N 66°30' E 012°06'1 1.3
2015-May-01 06:26N 66°29' E 012°05'  
2015-Apr-24 08:33N 64°51' E 011°13'9 8.7
2015-Apr-24 07:33N 64°57' E 011°28'95 8.3
2015-Apr-23 20:06N 66°24' E 012°58'36 7.8
2015-Apr-23 15:34N 66°57' E 013°29'9 8.6
2015-Apr-23 14:34N 67°02' E 013°47'9 8.7
2015-Apr-23 13:33N 67°09' E 014°02'9 8.6
2015-Apr-23 12:34N 67°15' E 014°16'4 3.7
2015-Apr-23 11:34N 67°17' E 014°23'  
Track history (hours):
 
Tides and Currents Weather Stations Pressure Air Temp Water Temp Dewpoint Dewpoint Depression Visibility Wind Speed Wind Dir Waves Ship Positions

Stottfjord

Last reported at 2015-May-03 10:34 UTC. Time now 2015-May-03 10:50 UTC.
Position N 67°17' E 014°23'.

Length 28 m; draft 5.3 m.

Type: Fishing. MMSI: 257580600.

Date/timePositionNaut miles runAvg speedWind from/ knotsBaromVisibWave heightAir tempDewpointWater temp
2015-May-03 10:34N 67°17' E 014°23'0 0.0
2015-May-03 09:33N 67°17' E 014°23'0 0.0
2015-May-03 08:34N 67°17' E 014°23'0 0.0
2015-May-03 07:34N 67°17' E 014°23'0 0.0
2015-May-03 06:33N 67°17' E 014°23'0 0.0
2015-May-03 05:34N 67°17' E 014°23'0 0.0
2015-May-03 04:33N 67°17' E 014°23'0 0.0
2015-May-03 03:34N 67°17' E 014°23'0 0.0
2015-May-03 02:34N 67°17' E 014°23'0 0.0
2015-May-03 01:34N 67°17' E 014°23'0 0.0
2015-May-03 00:33N 67°17' E 014°23'0 0.0
2015-May-02 23:34N 67°17' E 014°23'0 0.0
2015-May-02 22:34N 67°17' E 014°23'0 0.0
2015-May-02 21:33N 67°17' E 014°23'0 0.0
2015-May-02 20:34N 67°17' E 014°23'0 0.0
2015-May-02 19:34N 67°17' E 014°23'0 0.0
2015-May-02 18:34N 67°17' E 014°23'0 0.0
2015-May-02 17:34N 67°17' E 014°23'0 0.0
2015-May-02 16:34N 67°17' E 014°23'0 0.0
2015-May-02 15:34N 67°17' E 014°23'0 0.0
2015-May-02 14:34N 67°17' E 014°23'0 0.0
2015-May-02 13:33N 67°17' E 014°23'0 0.0
2015-May-02 12:34N 67°17' E 014°23'0 0.0
2015-May-02 11:33N 67°17' E 014°23'0 0.0
2015-May-02 10:33N 67°17' E 014°23'0 0.0
2015-May-02 09:34N 67°17' E 014°23'0 0.0
2015-May-02 08:34N 67°17' E 014°23'0 0.0
2015-May-02 07:34N 67°17' E 014°23'0 0.0
2015-May-02 06:34N 67°17' E 014°23'0 0.0
2015-May-02 05:34N 67°17' E 014°23'0 0.0
2015-May-02 04:34N 67°17' E 014°23'0 0.0
2015-May-02 03:34N 67°17' E 014°23'0 0.0
2015-May-02 02:34N 67°17' E 014°23'0 0.0
2015-May-02 01:34N 67°17' E 014°23'0 0.0
2015-May-02 00:33N 67°17' E 014°23'0 0.0
2015-May-01 23:34N 67°17' E 014°23'0 0.0
2015-May-01 22:34N 67°17' E 014°23'0 0.0
2015-May-01 21:34N 67°17' E 014°23'0 0.0
2015-May-01 20:34N 67°17' E 014°23'0 0.0
2015-May-01 19:34N 67°17' E 014°23'0 0.0
2015-May-01 18:34N 67°17' E 014°23'3 2.6
2015-May-01 17:34N 67°16' E 014°18'9 9.5
2015-May-01 16:34N 67°10' E 013°58'48 9.6
2015-May-01 11:32N 66°37' E 012°29'10 9.3
2015-May-01 10:29N 66°31' E 012°11'2 1.8
2015-May-01 09:30N 66°30' E 012°06'0 0.0
2015-May-01 08:33N 66°30' E 012°06'0 0.0
2015-May-01 07:33N 66°30' E 012°06'1 1.3
2015-May-01 06:26N 66°29' E 012°05'  
2015-Apr-24 08:33N 64°51' E 011°13'9 8.7
2015-Apr-24 07:33N 64°57' E 011°28'95 8.3
2015-Apr-23 20:06N 66°24' E 012°58'36 7.8
2015-Apr-23 15:34N 66°57' E 013°29'9 8.6
2015-Apr-23 14:34N 67°02' E 013°47'9 8.7
2015-Apr-23 13:33N 67°09' E 014°02'9 8.6
2015-Apr-23 12:34N 67°15' E 014°16'4 3.7
2015-Apr-23 11:34N 67°17' E 014°23'  

Dump ship's entire track history